createdAt,value
2018-12-07T00:02:13.569Z,14.40
2018-12-07T00:04:41.123Z,15.33
2018-12-07T00:07:08.638Z,13.30
2018-12-07T00:09:36.152Z,15.27
2018-12-07T00:12:03.852Z,13.33
2018-12-07T00:14:31.621Z,13.83
2018-12-07T00:16:59.191Z,12.40
2018-12-07T00:19:27.066Z,11.63
2018-12-07T00:21:54.611Z,12.43
2018-12-07T00:24:22.124Z,14.20
2018-12-07T00:26:49.655Z,16.13
2018-12-07T00:29:17.166Z,17.53
2018-12-07T00:31:44.655Z,13.10
2018-12-07T00:34:12.169Z,14.20
2018-12-07T00:36:40.220Z,14.67
2018-12-07T00:39:07.873Z,13.90
2018-12-07T00:41:35.641Z,13.47
2018-12-07T00:44:03.144Z,13.37
2018-12-07T00:46:30.666Z,16.20
2018-12-07T00:48:58.182Z,14.80
2018-12-07T00:51:25.717Z,15.77
2018-12-07T00:53:53.230Z,17.40
2018-12-07T00:56:20.838Z,15.40
2018-12-07T00:58:49.626Z,15.40
2018-12-07T01:01:17.127Z,15.20
2018-12-07T01:03:44.717Z,19.30
2018-12-07T01:06:12.227Z,14.40
2018-12-07T01:08:39.750Z,18.27
2018-12-07T01:11:07.258Z,15.70
2018-12-07T01:13:34.791Z,15.30
2018-12-07T01:16:02.527Z,15.73
2018-12-07T01:18:30.011Z,15.40
2018-12-07T01:20:57.879Z,18.07
2018-12-07T01:23:25.377Z,17.77
2018-12-07T01:25:52.890Z,15.53
2018-12-07T01:28:20.397Z,15.73
2018-12-07T01:30:48.798Z,17.20
2018-12-07T01:33:16.337Z,15.60
2018-12-07T01:35:43.914Z,16.33
2018-12-07T01:38:11.430Z,17.20
2018-12-07T01:40:39.651Z,17.67
2018-12-07T01:43:07.193Z,16.10
2018-12-07T01:45:34.716Z,15.43
2018-12-07T01:48:02.241Z,17.63
2018-12-07T01:50:29.831Z,16.40
2018-12-07T01:52:57.787Z,21.47
2018-12-07T01:55:25.318Z,16.07
2018-12-07T01:57:52.813Z,15.73
2018-12-07T02:00:20.434Z,19.33
2018-12-07T02:02:47.938Z,18.80
2018-12-07T02:05:15.443Z,17.53
2018-12-07T02:07:42.975Z,17.97
2018-12-07T02:10:10.580Z,20.57
2018-12-07T02:12:38.088Z,17.97
2018-12-07T02:15:05.755Z,17.67
2018-12-07T02:17:33.616Z,19.20
2018-12-07T02:20:01.146Z,17.63
2018-12-07T02:22:28.651Z,18.13
2018-12-07T02:24:56.155Z,19.10
2018-12-07T02:27:23.665Z,17.37
2018-12-07T02:29:51.796Z,16.30
2018-12-07T02:32:19.318Z,17.37
2018-12-07T02:34:46.834Z,18.87
2018-12-07T02:37:14.353Z,16.87
2018-12-07T02:39:42.100Z,14.40
2018-12-07T02:42:09.615Z,19.13
2018-12-07T02:44:37.125Z,13.27
2018-12-07T02:47:04.645Z,12.97
2018-12-07T02:49:32.179Z,15.37
2018-12-07T02:51:59.719Z,13.57
2018-12-07T02:54:27.225Z,13.93
2018-12-07T02:56:54.747Z,12.67
2018-12-07T02:59:22.252Z,11.03
2018-12-07T03:01:49.806Z,10.77
2018-12-07T03:04:17.357Z,10.57
2018-12-07T03:06:44.867Z,10.80
2018-12-07T03:09:12.407Z,10.03
2018-12-07T03:11:39.915Z,9.70
2018-12-07T03:14:07.492Z,8.87
2018-12-07T03:16:34.989Z,8.70
2018-12-07T03:19:02.758Z,9.30
2018-12-07T03:21:30.258Z,8.10
2018-12-07T03:23:57.761Z,9.70
2018-12-07T03:26:25.624Z,8.50
2018-12-07T03:28:53.117Z,9.77
2018-12-07T03:31:21.250Z,9.50
2018-12-07T03:33:48.798Z,7.97
2018-12-07T03:36:16.650Z,9.40
2018-12-07T03:38:44.158Z,9.97
2018-12-07T03:41:11.772Z,10.80
2018-12-07T03:43:39.347Z,10.40
2018-12-07T03:46:06.909Z,11.03
2018-12-07T03:48:34.501Z,10.60
2018-12-07T03:51:02.107Z,12.67
2018-12-07T03:53:29.718Z,9.63
2018-12-07T03:55:57.461Z,10.07
2018-12-07T03:58:25.618Z,11.00
2018-12-07T04:00:53.151Z,7.73
2018-12-07T04:03:21.094Z,8.73
2018-12-07T04:05:48.649Z,7.70
2018-12-07T04:08:16.242Z,7.60
2018-12-07T04:10:43.832Z,7.10
2018-12-07T04:13:11.313Z,5.87
2018-12-07T04:15:38.918Z,7.80
2018-12-07T04:18:06.532Z,5.77
2018-12-07T04:20:34.145Z,6.67
2018-12-07T04:23:01.777Z,6.57
2018-12-07T04:25:29.520Z,6.43
2018-12-07T04:27:57.064Z,6.10
2018-12-07T04:30:25.267Z,6.37
2018-12-07T04:32:52.850Z,6.47
2018-12-07T04:35:20.749Z,5.70
2018-12-07T04:37:48.701Z,6.10
2018-12-07T04:40:16.215Z,5.90
2018-12-07T04:42:43.719Z,5.20
2018-12-07T04:45:11.525Z,5.37
2018-12-07T04:47:39.013Z,5.40
2018-12-07T04:50:06.848Z,5.63
2018-12-07T04:52:34.394Z,5.50
2018-12-07T04:55:01.895Z,5.80
2018-12-07T04:57:29.399Z,4.43
2018-12-07T04:59:56.904Z,4.50
2018-12-07T05:02:24.395Z,4.43
2018-12-07T05:04:51.897Z,4.60
2018-12-07T05:07:19.870Z,4.97
2018-12-07T05:09:47.375Z,4.00
2018-12-07T05:12:14.915Z,4.20
2018-12-07T05:14:42.441Z,4.30
2018-12-07T05:17:09.924Z,3.07
2018-12-07T05:19:37.409Z,3.90
2018-12-07T05:22:04.917Z,3.93
2018-12-07T05:24:32.456Z,4.67
2018-12-07T05:27:02.461Z,3.77
2018-12-07T05:29:29.971Z,3.93
2018-12-07T05:31:57.490Z,4.27
2018-12-07T05:34:25.011Z,5.57
2018-12-07T05:36:52.510Z,3.30
2018-12-07T05:39:20.008Z,4.10
2018-12-07T05:41:47.664Z,4.57
2018-12-07T05:44:15.153Z,4.93
2018-12-07T05:46:43.649Z,5.00
2018-12-07T05:49:11.161Z,5.43
2018-12-07T05:51:38.679Z,4.63
2018-12-07T05:54:06.222Z,5.13
2018-12-07T05:56:33.752Z,5.13
2018-12-07T05:59:01.257Z,5.20
2018-12-07T06:01:28.783Z,4.13
2018-12-07T06:03:56.284Z,4.50
2018-12-07T06:06:23.860Z,4.90
2018-12-07T06:08:51.371Z,4.93
2018-12-07T06:11:18.923Z,4.30
2018-12-07T06:13:46.406Z,5.40
2018-12-07T06:16:13.944Z,4.60
2018-12-07T06:18:41.435Z,5.33
2018-12-07T06:21:08.931Z,4.93
2018-12-07T06:23:36.418Z,5.43
2018-12-07T06:26:03.916Z,5.07
2018-12-07T06:28:31.471Z,5.00
2018-12-07T06:30:58.979Z,7.03
2018-12-07T06:33:26.462Z,5.77
2018-12-07T06:35:54.368Z,6.53
2018-12-07T06:38:22.133Z,6.10
2018-12-07T06:40:49.664Z,6.27
2018-12-07T06:43:17.167Z,7.47
2018-12-07T06:45:44.650Z,6.13
2018-12-07T06:48:12.164Z,7.03
2018-12-07T06:50:39.669Z,6.97
2018-12-07T06:53:07.195Z,5.80
2018-12-07T06:55:34.694Z,5.60
2018-12-07T06:58:02.194Z,5.80
2018-12-07T07:00:29.772Z,5.47
2018-12-07T07:02:57.287Z,5.27
2018-12-07T07:05:24.774Z,5.83
2018-12-07T07:07:52.327Z,5.23
2018-12-07T07:10:19.863Z,5.80
2018-12-07T07:12:47.666Z,4.73
2018-12-07T07:15:15.153Z,6.10
2018-12-07T07:17:42.671Z,5.23
2018-12-07T07:20:10.236Z,6.57
2018-12-07T07:22:37.739Z,6.80
2018-12-07T07:25:05.398Z,7.03
2018-12-07T07:27:32.876Z,6.27
2018-12-07T07:30:00.833Z,8.10
2018-12-07T07:32:28.378Z,6.63
2018-12-07T07:34:56.720Z,6.63
2018-12-07T07:37:24.220Z,6.83
2018-12-07T07:39:51.727Z,8.67
2018-12-07T07:42:19.251Z,6.87
2018-12-07T07:44:46.761Z,6.37
2018-12-07T07:47:14.250Z,7.43
2018-12-07T07:49:41.744Z,8.00
2018-12-07T07:52:09.237Z,6.60
2018-12-07T07:54:36.747Z,7.50
2018-12-07T07:57:04.232Z,6.60
2018-12-07T07:59:32.256Z,7.27
2018-12-07T08:01:59.754Z,6.20
2018-12-07T08:04:27.317Z,6.50
2018-12-07T08:06:56.247Z,6.10
2018-12-07T08:09:23.773Z,7.00
2018-12-07T08:11:51.282Z,5.80
2018-12-07T08:14:19.096Z,6.03
2018-12-07T08:16:47.084Z,6.13
2018-12-07T08:19:15.173Z,5.60
2018-12-07T08:21:42.657Z,6.70
2018-12-07T08:24:10.165Z,7.07
2018-12-07T08:26:37.652Z,6.67
2018-12-07T08:29:05.169Z,7.07
2018-12-07T08:31:32.685Z,6.87
2018-12-07T08:34:00.373Z,7.33
2018-12-07T08:36:28.114Z,6.90
2018-12-07T08:38:55.607Z,7.43
2018-12-07T08:41:23.088Z,8.67
2018-12-07T08:43:50.647Z,8.43
2018-12-07T08:46:18.167Z,7.37
2018-12-07T08:48:45.685Z,5.90
2018-12-07T08:51:13.202Z,9.10
2018-12-07T08:53:41.199Z,7.37
2018-12-07T08:56:08.737Z,5.93
2018-12-07T08:58:36.233Z,5.77
2018-12-07T09:01:03.752Z,7.30
2018-12-07T09:03:31.257Z,9.00
2018-12-07T09:06:02.427Z,6.10
2018-12-07T09:08:29.980Z,6.80
2018-12-07T09:10:57.538Z,5.57
2018-12-07T09:13:25.636Z,5.03
2018-12-07T09:15:53.324Z,5.07
2018-12-07T09:18:20.859Z,4.90
2018-12-07T09:20:54.068Z,7.43
2018-12-07T09:23:18.166Z,6.33
2018-12-07T09:25:45.746Z,4.97
2018-12-07T09:28:16.548Z,5.20
2018-12-07T09:30:44.294Z,5.13
2018-12-07T09:33:12.329Z,5.13
2018-12-07T09:35:39.817Z,6.27
2018-12-07T09:38:13.166Z,4.57
2018-12-07T09:40:36.890Z,4.53
2018-12-07T09:43:04.463Z,3.90
2018-12-07T09:45:32.242Z,4.57
2018-12-07T09:47:59.849Z,4.70
2018-12-07T09:50:28.833Z,5.03
2018-12-07T09:52:56.335Z,5.70
2018-12-07T09:55:23.856Z,4.80
2018-12-07T09:57:51.363Z,4.67
2018-12-07T10:00:18.899Z,6.83
2018-12-07T10:02:46.456Z,5.60
2018-12-07T10:05:13.958Z,4.23
2018-12-07T10:07:42.409Z,4.47
2018-12-07T10:10:09.959Z,4.40
2018-12-07T10:12:37.455Z,4.03
2018-12-07T10:15:05.429Z,4.00
2018-12-07T10:17:32.947Z,3.70
2018-12-07T10:20:00.480Z,3.60
2018-12-07T10:22:28.047Z,3.37
2018-12-07T10:24:55.560Z,4.40
2018-12-07T10:27:23.095Z,3.97
2018-12-07T10:29:50.599Z,3.10
2018-12-07T10:32:18.828Z,2.40
2018-12-07T10:34:46.370Z,3.20
2018-12-07T10:37:14.456Z,2.30
2018-12-07T10:39:42.556Z,3.87
2018-12-07T10:42:10.043Z,3.07
2018-12-07T10:44:38.354Z,2.90
2018-12-07T10:47:06.175Z,2.37
2018-12-07T10:49:34.296Z,2.50
2018-12-07T10:52:01.807Z,1.70
2018-12-07T10:54:29.473Z,2.43
2018-12-07T10:56:57.105Z,2.97
2018-12-07T10:59:24.630Z,2.00
2018-12-07T11:01:57.880Z,2.90
2018-12-07T11:04:31.267Z,2.03
2018-12-07T11:07:04.461Z,1.60
2018-12-07T11:09:37.571Z,1.60
2018-12-07T11:12:10.802Z,1.80
2018-12-07T11:14:44.067Z,1.57
2018-12-07T11:17:17.147Z,1.60
2018-12-07T11:19:50.381Z,1.50
2018-12-07T11:22:23.644Z,2.47
2018-12-07T11:24:56.964Z,1.83
2018-12-07T11:30:27.938Z,1.73
2018-12-07T11:33:01.950Z,1.33
2018-12-07T11:35:29.631Z,1.73
2018-12-07T11:37:57.432Z,3.23
2018-12-07T11:40:24.956Z,2.07
2018-12-07T11:42:52.970Z,2.00
2018-12-07T11:45:20.862Z,2.37
2018-12-07T11:47:48.351Z,3.47
2018-12-07T11:50:15.842Z,1.63
2018-12-07T11:52:43.507Z,1.50
2018-12-07T11:55:11.100Z,1.47
2018-12-07T11:57:38.635Z,4.97
2018-12-07T12:00:06.772Z,1.70
2018-12-07T12:02:34.349Z,1.03
2018-12-07T12:05:01.948Z,1.43
2018-12-07T12:07:30.189Z,1.20
2018-12-07T12:09:57.728Z,1.23
2018-12-07T12:12:25.873Z,1.43
2018-12-07T12:14:53.431Z,1.40
2018-12-07T12:17:20.929Z,2.40
2018-12-07T12:19:48.461Z,1.17
2018-12-07T12:22:15.988Z,1.20
2018-12-07T12:24:43.490Z,1.87
2018-12-07T12:27:11.801Z,2.00
2018-12-07T12:29:39.328Z,1.13
2018-12-07T12:32:06.827Z,1.87
2018-12-07T12:34:35.396Z,1.90
2018-12-07T12:37:02.908Z,1.60
2018-12-07T12:39:30.447Z,1.20
2018-12-07T12:41:58.039Z,1.63
2018-12-07T12:44:25.624Z,1.03
2018-12-07T12:46:53.146Z,2.57
2018-12-07T12:49:20.758Z,1.80
2018-12-07T12:51:48.270Z,1.30
2018-12-07T12:54:16.087Z,0.93
2018-12-07T12:56:43.652Z,1.77
2018-12-07T12:59:11.171Z,2.63
2018-12-07T13:01:38.746Z,1.03
2018-12-07T13:04:06.229Z,2.43
2018-12-07T13:06:33.762Z,2.00
2018-12-07T13:09:01.287Z,1.07
2018-12-07T13:11:28.832Z,2.30
2018-12-07T13:13:56.343Z,2.50
2018-12-07T13:16:23.869Z,0.90
2018-12-07T13:18:51.362Z,1.30
2018-12-07T13:21:18.849Z,1.77
2018-12-07T13:23:46.423Z,1.30
2018-12-07T13:26:13.951Z,0.93
2018-12-07T13:28:41.451Z,2.27
2018-12-07T13:31:08.950Z,2.20
2018-12-07T13:33:37.065Z,1.60
2018-12-07T13:36:04.624Z,1.20
2018-12-07T13:38:32.227Z,2.13
2018-12-07T13:40:59.911Z,2.90
2018-12-07T13:43:27.524Z,1.00
2018-12-07T13:45:56.183Z,1.40
2018-12-07T13:48:23.820Z,1.93
2018-12-07T13:50:51.397Z,1.17
2018-12-07T13:53:18.997Z,2.53
2018-12-07T13:55:46.554Z,1.67
2018-12-07T13:58:14.330Z,3.67
2018-12-07T14:00:41.952Z,1.20
2018-12-07T14:03:09.581Z,3.13
2018-12-07T14:05:37.358Z,1.30
2018-12-07T14:08:06.738Z,1.67
2018-12-07T14:10:35.028Z,1.77
2018-12-07T14:13:02.664Z,1.80
2018-12-07T14:15:30.436Z,3.50
2018-12-07T14:17:58.262Z,4.13
2018-12-07T14:20:26.022Z,2.13
2018-12-07T14:22:53.605Z,3.33
2018-12-07T14:25:21.454Z,3.20
2018-12-07T14:27:49.632Z,3.67
2018-12-07T14:30:17.423Z,3.37
2018-12-07T14:32:45.087Z,2.30
2018-12-07T14:35:12.900Z,2.57
2018-12-07T14:37:40.598Z,5.10
2018-12-07T14:40:08.413Z,2.23
2018-12-07T14:42:36.057Z,3.90
2018-12-07T14:45:05.248Z,1.97
2018-12-07T14:47:32.828Z,3.90
2018-12-07T14:50:01.666Z,3.43
2018-12-07T14:52:29.296Z,2.57
2018-12-07T14:54:57.407Z,3.87
2018-12-07T14:57:25.987Z,2.27
2018-12-07T14:59:53.600Z,2.63
2018-12-07T15:02:21.292Z,4.50
2018-12-07T15:04:48.868Z,3.50
2018-12-07T15:07:16.507Z,3.50
2018-12-07T15:09:44.209Z,1.37
2018-12-07T15:12:12.407Z,3.67
2018-12-07T15:14:40.069Z,3.83
2018-12-07T15:17:07.727Z,2.20
2018-12-07T15:19:35.579Z,2.60
2018-12-07T15:22:03.244Z,2.30
2018-12-07T15:24:30.854Z,4.03
2018-12-07T15:26:58.778Z,3.17
2018-12-07T15:29:26.656Z,4.13
2018-12-07T15:31:54.432Z,2.70
2018-12-07T15:34:23.538Z,4.43
2018-12-07T15:36:52.173Z,3.03
2018-12-07T15:39:19.981Z,4.37
2018-12-07T15:41:47.795Z,2.43
2018-12-07T15:44:15.497Z,3.90
2018-12-07T15:46:43.132Z,3.17
2018-12-07T15:49:10.876Z,1.40
2018-12-07T15:51:38.606Z,1.70
2018-12-07T15:54:06.773Z,4.40
2018-12-07T15:56:34.330Z,2.07
2018-12-07T15:59:02.116Z,2.40
2018-12-07T16:01:29.887Z,3.63
2018-12-07T16:03:57.522Z,3.07
2018-12-07T16:06:25.094Z,4.17
2018-12-07T16:08:52.787Z,5.93
2018-12-07T16:11:21.000Z,6.47
2018-12-07T16:13:49.111Z,11.50
2018-12-07T16:16:16.960Z,4.60
2018-12-07T16:18:44.643Z,5.13
2018-12-07T16:21:12.707Z,9.27
2018-12-07T16:23:40.440Z,7.37
2018-12-07T16:26:08.542Z,9.20
2018-12-07T16:28:37.046Z,8.60
2018-12-07T16:31:04.694Z,6.10
2018-12-07T16:33:32.351Z,7.33
2018-12-07T16:36:00.068Z,7.93
2018-12-07T16:38:27.872Z,10.13
2018-12-07T16:40:55.851Z,11.80
2018-12-07T16:43:23.463Z,15.27
2018-12-07T16:45:51.070Z,12.27
2018-12-07T16:48:19.045Z,10.37
2018-12-07T16:50:46.672Z,12.37
2018-12-07T16:53:14.288Z,9.00
2018-12-07T16:55:42.032Z,10.70
2018-12-07T16:58:10.398Z,15.40
2018-12-07T17:00:38.292Z,16.40
2018-12-07T17:03:05.852Z,9.93
2018-12-07T17:05:33.534Z,12.47
2018-12-07T17:08:01.245Z,13.30
2018-12-07T17:10:28.840Z,14.37
2018-12-07T17:12:56.568Z,9.17
2018-12-07T17:15:25.144Z,8.57
2018-12-07T17:17:53.022Z,13.57
2018-12-07T17:20:22.166Z,8.23
2018-12-07T17:22:49.906Z,13.90
2018-12-07T17:25:18.635Z,12.63
2018-12-07T17:27:46.215Z,10.30
2018-12-07T17:30:15.219Z,11.03
2018-12-07T17:32:42.709Z,13.67
2018-12-07T17:35:13.904Z,12.27
2018-12-07T17:37:41.629Z,9.23
2018-12-07T17:40:10.724Z,7.13
2018-12-07T17:42:38.554Z,10.47
2018-12-07T17:45:06.616Z,11.00
2018-12-07T17:47:34.487Z,6.53
2018-12-07T17:50:02.232Z,6.87
2018-12-07T17:52:29.861Z,9.63
2018-12-07T17:54:57.440Z,8.90
2018-12-07T17:57:25.303Z,8.00
2018-12-07T17:59:53.483Z,8.53
2018-12-07T18:02:21.016Z,8.63
2018-12-07T18:04:48.503Z,8.20
2018-12-07T18:07:17.101Z,7.07
2018-12-07T18:09:44.965Z,13.47
2018-12-07T18:12:12.758Z,7.37
2018-12-07T18:14:40.430Z,6.03
2018-12-07T18:17:08.311Z,12.80
2018-12-07T18:19:35.895Z,8.60
2018-12-07T18:22:03.933Z,12.77
2018-12-07T18:24:31.786Z,4.67
2018-12-07T18:26:59.571Z,10.13
2018-12-07T18:29:27.245Z,8.00
2018-12-07T18:31:54.938Z,8.10
2018-12-07T18:34:22.622Z,9.23
2018-12-07T18:36:50.538Z,14.00
2018-12-07T18:39:18.720Z,7.50
2018-12-07T18:41:46.551Z,12.10
2018-12-07T18:44:14.309Z,10.37
2018-12-07T18:46:42.107Z,11.13
2018-12-07T18:49:09.638Z,9.80
2018-12-07T18:51:37.345Z,8.47
2018-12-07T18:54:04.890Z,13.03
2018-12-07T18:56:33.229Z,10.60
2018-12-07T18:59:01.053Z,10.23
2018-12-07T19:01:29.007Z,11.47
2018-12-07T19:03:56.607Z,12.67
2018-12-07T19:06:24.406Z,11.53
2018-12-07T19:08:52.302Z,6.10
2018-12-07T19:11:20.073Z,9.50
2018-12-07T19:13:48.418Z,8.83
2018-12-07T19:16:16.393Z,6.10
2018-12-07T19:18:44.275Z,10.73
2018-12-07T19:21:11.946Z,5.97
2018-12-07T19:23:39.715Z,5.40
2018-12-07T19:26:07.951Z,4.73
2018-12-07T19:28:36.321Z,8.67
2018-12-07T19:31:03.886Z,9.40
2018-12-07T19:33:31.418Z,9.00
2018-12-07T19:35:59.312Z,6.30
2018-12-07T19:38:26.957Z,8.10
2018-12-07T19:40:54.495Z,6.30
2018-12-07T19:43:22.207Z,4.80
2018-12-07T19:45:49.862Z,6.00
2018-12-07T19:48:17.456Z,6.37
2018-12-07T19:50:45.946Z,8.30
2018-12-07T19:53:13.782Z,6.90
2018-12-07T19:55:41.384Z,10.67
2018-12-07T19:58:09.023Z,12.00
2018-12-07T20:00:37.869Z,9.20
2018-12-07T20:03:05.401Z,8.30
2018-12-07T20:05:33.154Z,7.60
2018-12-07T20:08:00.772Z,10.07
2018-12-07T20:10:28.354Z,8.70
2018-12-07T20:12:55.843Z,9.13
2018-12-07T20:15:23.362Z,11.03
2018-12-07T20:17:51.160Z,12.77
2018-12-07T20:20:18.832Z,10.77
2018-12-07T20:22:46.461Z,10.53
2018-12-07T20:25:14.919Z,12.30
2018-12-07T20:27:42.768Z,8.63
2018-12-07T20:30:10.690Z,11.07
2018-12-07T20:32:38.435Z,9.27
2018-12-07T20:35:11.992Z,14.60
2018-12-07T20:37:39.764Z,12.97
2018-12-07T20:40:07.562Z,10.07
2018-12-07T20:42:35.188Z,7.80
2018-12-07T20:45:02.817Z,18.53
2018-12-07T20:47:30.523Z,17.27
2018-12-07T20:49:58.803Z,12.87
2018-12-07T20:52:26.591Z,15.57
2018-12-07T20:54:54.654Z,11.67
2018-12-07T20:57:22.379Z,15.13
2018-12-07T20:59:50.318Z,13.70
2018-12-07T21:02:17.856Z,12.73
2018-12-07T21:04:45.368Z,11.80
2018-12-07T21:10:38.494Z,14.23
2018-12-07T21:16:30.692Z,14.87
2018-12-07T21:18:58.972Z,17.47
2018-12-07T21:21:28.423Z,15.73
2018-12-07T21:23:56.387Z,14.53
2018-12-07T21:26:24.442Z,13.87
2018-12-07T21:28:52.439Z,15.47
2018-12-07T21:31:20.571Z,18.40
2018-12-07T21:33:52.244Z,18.43
2018-12-07T21:36:42.604Z,14.03
2018-12-07T21:39:17.251Z,8.93
2018-12-07T21:41:44.904Z,13.40
2018-12-07T21:44:12.567Z,11.70
2018-12-07T21:46:40.314Z,7.13
2018-12-07T21:49:08.286Z,9.10
2018-12-07T21:54:34.964Z,12.40
2018-12-07T21:57:02.765Z,11.63
2018-12-07T21:59:30.365Z,11.00
2018-12-07T22:01:58.333Z,12.60
2018-12-07T22:04:25.946Z,11.27
2018-12-07T22:06:53.632Z,10.43
2018-12-07T22:09:21.652Z,8.60
2018-12-07T22:11:49.485Z,8.40
2018-12-07T22:14:17.292Z,9.07
2018-12-07T22:16:45.209Z,11.10
2018-12-07T22:19:12.938Z,11.70
2018-12-07T22:21:40.742Z,11.43
2018-12-07T22:24:08.284Z,16.83
2018-12-07T22:26:36.064Z,12.67
2018-12-07T22:29:03.828Z,12.57
2018-12-07T22:31:31.969Z,11.30
2018-12-07T22:33:59.916Z,14.20
2018-12-07T22:36:28.903Z,10.47
2018-12-07T22:38:56.671Z,10.80
2018-12-07T22:41:24.474Z,13.77
2018-12-07T22:43:52.196Z,12.23
2018-12-07T22:46:20.642Z,13.10
2018-12-07T22:48:48.254Z,11.67
2018-12-07T22:51:17.747Z,12.30
2018-12-07T22:53:45.323Z,13.87
2018-12-07T22:56:12.830Z,17.63
2018-12-07T22:58:40.346Z,10.97
2018-12-07T23:01:08.754Z,9.97
2018-12-07T23:03:36.570Z,10.57
2018-12-07T23:06:04.130Z,15.53
2018-12-07T23:08:31.647Z,12.53
2018-12-07T23:10:59.434Z,12.10
2018-12-07T23:13:26.969Z,11.57
2018-12-07T23:15:54.507Z,16.13
2018-12-07T23:18:22.032Z,16.43
2018-12-07T23:20:49.543Z,15.30
2018-12-07T23:23:17.065Z,15.17
2018-12-07T23:25:44.577Z,14.23
2018-12-07T23:28:12.095Z,13.17
2018-12-07T23:30:39.667Z,15.87
2018-12-07T23:33:07.205Z,10.00
2018-12-07T23:35:34.752Z,16.37
2018-12-07T23:38:02.246Z,16.47
2018-12-07T23:40:29.765Z,16.77
2018-12-07T23:42:59.255Z,11.33
2018-12-07T23:45:26.847Z,9.80
2018-12-07T23:47:54.638Z,11.27
2018-12-07T23:50:22.178Z,10.47
2018-12-07T23:52:49.692Z,12.30
2018-12-07T23:55:17.179Z,16.07
2018-12-07T23:57:45.320Z,16.83
